Time;durP1;ratioP1;P1;durP2;ratioP2;P2;SDS_P1;SDS_P2;PMS_P1;PMS_P2;Temp;Humidity;BMP_temperature;BMP_pressure;BME280_temperature;BME280_humidity;BME280_pressure;Samples;Min_cycle;Max_cycle;Signal;HPM_P1;HPM_P2
2021/01/02 00:02:41;;;;;;;79.15;10.95;;;0.40;86.10;;;;;;5044883;28;20029;-68
2021/01/02 00:05:11;;;;;;;97.63;10.90;;;0.50;86.10;;;;;;5011396;28;20083;-67
2021/01/02 00:07:56;;;;;;;91.13;11.45;;;0.50;85.60;;;;;;5030338;28;20022;-67
2021/01/02 00:10:23;;;;;;;78.68;10.07;;;0.40;85.70;;;;;;5027023;28;20025;-67
2021/01/02 00:13:12;;;;;;;60.10;8.98;;;0.50;85.90;;;;;;5022577;28;20029;-67
2021/01/02 00:16:01;;;;;;;94.07;9.45;;;0.50;85.70;;;;;;5026602;28;20043;-67
2021/01/02 00:18:37;;;;;;;116.05;10.15;;;0.50;85.80;;;;;;5029468;28;20438;-68
2021/01/02 00:21:21;;;;;;;109.72;9.77;;;0.60;86.00;;;;;;5027986;28;20075;-67
2021/01/02 00:24:23;;;;;;;61.78;9.90;;;0.60;86.00;;;;;;5018281;28;20025;-67
2021/01/02 00:27:25;;;;;;;92.18;8.93;;;0.60;86.00;;;;;;5028615;28;20033;-67
2021/01/02 00:29:55;;;;;;;132.07;10.85;;;0.70;85.90;;;;;;5026408;28;20033;-67
2021/01/02 00:32:54;;;;;;;67.45;10.15;;;0.70;85.90;;;;;;5028082;28;20666;-68
2021/01/02 00:35:25;;;;;;;80.28;10.68;;;0.80;86.00;;;;;;5026925;28;20064;-68
2021/01/02 00:37:59;;;;;;;75.88;9.57;;;0.80;85.90;;;;;;5031911;28;20025;-67
2021/01/02 00:40:26;;;;;;;57.20;9.27;;;0.80;85.90;;;;;;5033992;28;20029;-67
2021/01/02 00:42:52;;;;;;;61.88;10.45;;;0.80;85.90;;;;;;5035121;28;20025;-67
2021/01/02 00:45:23;;;;;;;146.32;11.07;;;0.90;86.00;;;;;;5035042;28;20068;-67
2021/01/02 00:47:50;;;;;;;104.05;10.40;;;0.90;85.80;;;;;;5034451;28;20033;-67
2021/01/02 00:50:18;;;;;;;56.10;8.73;;;0.90;85.40;;;;;;5033374;28;20112;-67
2021/01/02 00:52:46;;;;;;;75.45;10.40;;;0.90;85.70;;;;;;5035272;28;20029;-67
2021/01/02 00:55:32;;;;;;;68.80;8.65;;;0.90;85.90;;;;;;5041868;28;20029;-65
2021/01/02 00:58:00;;;;;;;59.00;8.27;;;0.90;85.90;;;;;;5040476;28;20025;-65
2021/01/02 01:00:32;;;;;;;56.95;7.78;;;0.90;85.80;;;;;;5034944;28;20044;-65
2021/01/02 01:03:12;;;;;;;63.47;8.77;;;0.90;85.80;;;;;;5029227;28;20049;-66
2021/01/02 01:05:39;;;;;;;47.42;8.57;;;0.80;85.80;;;;;;5040196;28;20014;-66
2021/01/02 01:08:06;;;;;;;60.97;8.98;;;0.80;86.10;;;;;;5048545;28;20034;-66
2021/01/02 01:10:36;;;;;;;40.20;8.50;;;0.80;86.10;;;;;;5049921;28;20033;-65
2021/01/02 01:13:10;;;;;;;41.70;8.55;;;0.80;86.00;;;;;;5049741;28;20049;-66
2021/01/02 01:15:35;;;;;;;56.22;8.43;;;0.70;85.90;;;;;;5043786;28;20039;-66
2021/01/02 01:18:07;;;;;;;41.80;8.05;;;0.70;85.80;;;;;;5042795;28;20045;-65
2021/01/02 01:20:33;;;;;;;59.97;8.27;;;0.60;85.90;;;;;;5027841;28;20025;-65
2021/01/02 01:23:16;;;;;;;55.97;9.05;;;0.50;86.00;;;;;;5038252;28;20025;-66
2021/01/02 01:25:55;;;;;;;78.28;9.07;;;0.40;86.20;;;;;;5044402;28;20071;-66
2021/01/02 01:28:24;;;;;;;75.57;9.68;;;0.30;86.40;;;;;;5043414;28;20059;-66
2021/01/02 01:30:53;;;;;;;70.25;8.82;;;0.30;86.40;;;;;;5032048;28;20022;-66
2021/01/02 01:33:29;;;;;;;71.35;9.10;;;0.20;86.50;;;;;;5038990;28;20551;-66
2021/01/02 01:36:02;;;;;;;114.28;9.55;;;0.20;86.60;;;;;;5039272;28;20029;-65
2021/01/02 01:38:29;;;;;;;66.47;9.70;;;0.20;86.60;;;;;;5039031;28;20116;-66
2021/01/02 01:41:15;;;;;;;53.13;8.95;;;0.20;86.70;;;;;;5037330;28;20207;-65
2021/01/02 01:44:14;;;;;;;79.78;9.38;;;0.20;86.70;;;;;;5040577;28;20025;-65
2021/01/02 01:46:49;;;;;;;121.82;9.00;;;0.10;86.60;;;;;;5025242;28;20116;-66
2021/01/02 01:49:30;;;;;;;84.90;8.45;;;0.10;86.80;;;;;;5031827;28;20037;-66
2021/01/02 01:52:04;;;;;;;55.30;8.32;;;0.10;86.90;;;;;;5041028;28;20047;-66
2021/01/02 01:55:05;;;;;;;60.47;9.38;;;0.10;86.80;;;;;;5036265;28;20080;-66
2021/01/02 01:57:39;;;;;;;89.57;8.65;;;0.10;86.80;;;;;;5039964;28;20029;-66
2021/01/02 02:00:14;;;;;;;66.97;9.43;;;0.00;86.40;;;;;;5035222;28;20060;-65
2021/01/02 02:02:39;;;;;;;91.43;10.77;;;0.00;86.70;;;;;;5052294;28;20029;-65
2021/01/02 02:05:07;;;;;;;61.97;9.07;;;0.00;86.80;;;;;;5039893;28;20044;-66
2021/01/02 02:08:02;;;;;;;81.20;10.10;;;0.00;86.90;;;;;;5041074;28;20022;-66
2021/01/02 02:10:32;;;;;;;55.35;9.77;;;0.00;87.00;;;;;;5039810;28;20381;-66
2021/01/02 02:13:28;;;;;;;64.55;9.43;;;0.10;86.90;;;;;;5041336;28;20021;-66
2021/01/02 02:15:55;;;;;;;60.75;9.63;;;0.20;86.90;;;;;;5032716;28;20048;-66
2021/01/02 02:18:29;;;;;;;80.00;10.20;;;0.20;86.90;;;;;;5037570;28;20026;-66
2021/01/02 02:20:59;;;;;;;73.18;9.77;;;0.30;86.80;;;;;;5036054;28;20032;-66
2021/01/02 02:23:51;;;;;;;72.70;9.43;;;0.40;86.70;;;;;;5035621;28;20494;-66
2021/01/02 02:26:31;;;;;;;58.70;7.68;;;0.50;86.70;;;;;;5036418;28;20026;-66
2021/01/02 02:29:03;;;;;;;53.50;8.93;;;0.40;86.20;;;;;;5044214;28;20041;-66
2021/01/02 02:31:29;;;;;;;76.97;9.48;;;0.30;86.30;;;;;;5032341;28;20044;-66
2021/01/02 02:34:02;;;;;;;50.17;8.38;;;0.30;86.30;;;;;;5033037;28;20493;-66
2021/01/02 02:36:30;;;;;;;38.13;8.88;;;0.20;86.90;;;;;;5034761;28;20033;-66
2021/01/02 02:39:01;;;;;;;69.75;8.32;;;0.20;86.60;;;;;;5026038;28;20033;-66
2021/01/02 02:41:30;;;;;;;43.22;7.82;;;0.20;86.90;;;;;;5033913;28;20544;-66
2021/01/02 02:44:00;;;;;;;27.17;8.05;;;0.20;86.80;;;;;;5032391;28;20029;-66
2021/01/02 02:46:32;;;;;;;62.80;7.82;;;0.20;86.80;;;;;;5045750;28;20033;-66
2021/01/02 02:49:04;;;;;;;111.38;8.35;;;0.20;86.90;;;;;;5033827;28;20036;-66
2021/01/02 02:51:34;;;;;;;48.92;8.70;;;0.20;86.70;;;;;;5034348;28;20045;-66
2021/01/02 02:54:00;;;;;;;71.70;9.20;;;0.10;86.70;;;;;;5032041;28;20035;-66
2021/01/02 02:56:25;;;;;;;68.60;8.48;;;0.10;86.90;;;;;;5041558;28;20108;-66
2021/01/02 02:58:52;;;;;;;68.45;7.85;;;0.10;86.90;;;;;;5044527;28;20021;-66
2021/01/02 03:01:18;;;;;;;80.65;8.82;;;0.10;87.00;;;;;;5032884;28;20017;-66
2021/01/02 03:03:43;;;;;;;57.42;8.35;;;0.20;87.00;;;;;;5031628;28;20374;-66
2021/01/02 03:06:09;;;;;;;38.85;8.38;;;0.20;86.90;;;;;;5033917;28;20018;-66
2021/01/02 03:08:35;;;;;;;50.33;7.88;;;0.20;86.90;;;;;;5032725;28;20035;-66
2021/01/02 03:11:02;;;;;;;42.30;8.13;;;0.30;86.80;;;;;;5027469;28;20111;-66
2021/01/02 03:13:38;;;;;;;30.42;7.88;;;0.30;86.70;;;;;;5028327;28;20025;-66
2021/01/02 03:16:04;;;;;;;44.95;8.73;;;0.30;86.70;;;;;;5031804;28;20025;-66
2021/01/02 03:18:30;;;;;;;83.18;8.98;;;0.20;86.70;;;;;;5032251;28;20172;-66
2021/01/02 03:20:55;;;;;;;45.75;8.20;;;0.20;86.70;;;;;;5029931;28;20029;-66
2021/01/02 03:23:21;;;;;;;43.25;8.25;;;0.10;86.70;;;;;;5030650;28;20052;-66
2021/01/02 03:25:46;;;;;;;33.92;8.23;;;0.10;87.30;;;;;;5028082;28;20387;-66
2021/01/02 03:28:12;;;;;;;46.90;9.05;;;0.10;86.70;;;;;;5024899;28;20091;-66
2021/01/02 03:30:37;;;;;;;45.85;8.30;;;0.10;86.70;;;;;;5026097;28;20030;-66
2021/01/02 03:33:03;;;;;;;44.78;8.57;;;0.00;86.60;;;;;;5030365;28;20116;-66
2021/01/02 03:35:29;;;;;;;46.33;8.43;;;0.00;86.80;;;;;;5026364;28;20512;-66
2021/01/02 03:37:54;;;;;;;48.88;9.18;;;0.00;86.90;;;;;;5031758;28;20045;-66
2021/01/02 03:40:20;;;;;;;59.50;10.13;;;0.00;86.70;;;;;;5028644;28;20116;-66
2021/01/02 03:42:47;;;;;;;43.85;10.48;;;0.00;86.90;;;;;;5030542;28;20029;-66
2021/01/02 03:45:15;;;;;;;46.03;10.07;;;0.00;87.00;;;;;;5028068;28;20397;-66
2021/01/02 03:47:46;;;;;;;54.53;10.18;;;0.10;87.00;;;;;;5032755;28;20175;-66
2021/01/02 03:50:13;;;;;;;37.30;9.40;;;0.20;87.00;;;;;;5028712;28;20029;-66
2021/01/02 03:52:38;;;;;;;29.65;10.35;;;0.20;86.90;;;;;;5027199;28;20041;-67
2021/01/02 03:55:09;;;;;;;45.85;9.38;;;0.30;86.80;;;;;;5032850;28;20026;-66
2021/01/02 03:57:35;;;;;;;34.47;9.52;;;0.30;86.60;;;;;;5051202;28;20036;-66
2021/01/02 04:00:00;;;;;;;36.00;10.05;;;0.30;86.60;;;;;;5033792;28;20021;-66
2021/01/02 04:02:27;;;;;;;16.60;9.02;;;0.40;86.80;;;;;;5032625;28;20116;-66
2021/01/02 04:04:52;;;;;;;31.92;8.52;;;0.40;86.70;;;;;;5032076;28;20075;-66
2021/01/02 04:07:18;;;;;;;39.03;8.35;;;0.40;86.70;;;;;;5045691;28;20029;-66
2021/01/02 04:09:44;;;;;;;41.55;8.65;;;0.40;86.60;;;;;;5031752;28;20041;-66
2021/01/02 04:12:10;;;;;;;30.98;9.30;;;0.30;86.40;;;;;;5031718;28;20091;-66
2021/01/02 04:14:35;;;;;;;40.38;9.68;;;0.30;86.70;;;;;;5033322;28;20026;-66
2021/01/02 04:17:01;;;;;;;37.35;10.75;;;0.30;86.90;;;;;;5034373;28;20083;-67
2021/01/02 04:19:27;;;;;;;37.75;10.15;;;0.40;87.10;;;;;;5033558;28;20111;-67
2021/01/02 04:21:52;;;;;;;31.85;10.27;;;0.40;86.90;;;;;;5032953;28;20026;-67
2021/01/02 04:24:18;;;;;;;21.77;10.20;;;0.50;86.70;;;;;;5032061;28;20028;-67
2021/01/02 04:26:43;;;;;;;16.73;9.45;;;0.60;86.70;;;;;;5046153;28;20029;-66
2021/01/02 04:29:09;;;;;;;21.52;8.82;;;0.60;86.60;;;;;;5029713;28;20072;-66
2021/01/02 04:31:39;;;;;;;18.17;9.10;;;0.70;86.40;;;;;;5033758;28;20060;-66
2021/01/02 04:34:06;;;;;;;20.50;9.48;;;0.60;86.20;;;;;;5030210;28;20032;-66
2021/01/02 04:36:33;;;;;;;17.05;9.68;;;0.60;86.20;;;;;;5032545;28;20029;-67
2021/01/02 04:38:59;;;;;;;17.60;9.45;;;0.50;86.40;;;;;;5031981;28;20374;-67
2021/01/02 04:41:24;;;;;;;16.92;9.75;;;0.50;86.50;;;;;;5034109;28;20021;-66
2021/01/02 04:43:51;;;;;;;17.92;9.80;;;0.50;86.70;;;;;;5031539;28;20389;-66
2021/01/02 04:46:17;;;;;;;37.53;9.43;;;0.50;86.70;;;;;;5033950;28;20108;-67
2021/01/02 04:49:18;;;;;;;18.83;9.60;;;0.60;86.70;;;;;;5025438;28;20429;-66
2021/01/02 04:51:44;;;;;;;19.90;9.25;;;0.60;86.50;;;;;;5035060;28;20037;-66
2021/01/02 04:54:10;;;;;;;18.88;9.85;;;0.60;86.10;;;;;;5033707;28;20025;-67
2021/01/02 04:56:39;;;;;;;19.80;10.48;;;0.50;86.40;;;;;;5041384;28;20026;-66
2021/01/02 04:59:10;;;;;;;19.85;10.80;;;0.50;86.40;;;;;;5038753;28;20037;-66
2021/01/02 05:01:40;;;;;;;19.65;10.48;;;0.50;86.60;;;;;;5031767;28;20029;-67
2021/01/02 05:04:08;;;;;;;17.17;9.98;;;0.50;86.60;;;;;;5030474;28;20389;-67
2021/01/02 05:06:35;;;;;;;17.33;9.55;;;0.60;86.60;;;;;;5033500;28;20032;-66
2021/01/02 05:09:00;;;;;;;17.35;9.55;;;0.60;86.20;;;;;;5032378;28;20433;-67
2021/01/02 05:11:33;;;;;;;14.68;9.15;;;0.60;86.30;;;;;;5031149;28;20025;-67
2021/01/02 05:14:00;;;;;;;16.13;9.07;;;0.60;86.20;;;;;;5029472;28;20386;-67
2021/01/02 05:16:45;;;;;;;13.95;9.27;;;0.60;86.30;;;;;;5032886;28;20521;-67
2021/01/02 05:19:15;;;;;;;12.98;8.48;;;0.60;86.40;;;;;;5031447;28;20367;-67
2021/01/02 05:21:50;;;;;;;14.50;9.35;;;0.60;86.50;;;;;;5032491;28;20029;-67
2021/01/02 05:24:19;;;;;;;15.13;8.77;;;0.60;86.40;;;;;;5029851;28;20056;-67
2021/01/02 05:26:58;;;;;;;12.43;7.95;;;0.60;86.10;;;;;;5039285;28;20024;-67
2021/01/02 05:29:26;;;;;;;17.90;8.93;;;0.50;86.20;;;;;;5032096;28;20051;-68
2021/01/02 05:31:51;;;;;;;16.48;8.82;;;0.50;86.30;;;;;;5032615;28;20040;-67
2021/01/02 05:34:25;;;;;;;16.45;9.27;;;0.50;86.40;;;;;;5029178;28;20029;-68
2021/01/02 05:37:04;;;;;;;16.20;9.98;;;0.60;86.60;;;;;;5028615;28;20037;-67
2021/01/02 05:39:50;;;;;;;16.42;9.70;;;0.70;86.70;;;;;;5031433;28;20025;-68
2021/01/02 05:42:19;;;;;;;16.90;9.60;;;0.80;86.60;;;;;;5045106;28;20089;-67
2021/01/02 05:44:45;;;;;;;15.77;9.68;;;0.80;86.30;;;;;;5026352;28;20049;-67
2021/01/02 05:47:12;;;;;;;15.80;9.68;;;0.90;86.20;;;;;;5090574;22;20068;-66
2021/01/02 05:49:49;;;;;;;15.98;9.70;;;0.90;86.00;;;;;;5024863;28;20112;-66
2021/01/02 05:52:15;;;;;;;18.23;10.05;;;0.90;85.90;;;;;;5031436;28;20104;-66
2021/01/02 05:54:47;;;;;;;16.77;10.20;;;1.00;86.10;;;;;;5030465;28;20057;-66
2021/01/02 05:57:13;;;;;;;16.93;10.37;;;1.00;86.10;;;;;;5030838;28;20025;-66
2021/01/02 05:59:42;;;;;;;16.48;9.95;;;1.00;86.00;;;;;;5024352;28;20029;-66
2021/01/02 06:02:30;;;;;;;15.07;9.32;;;1.00;86.00;;;;;;5031404;28;20037;-66
2021/01/02 06:05:09;;;;;;;15.05;9.40;;;1.10;85.80;;;;;;5028691;28;20025;-66
2021/01/02 06:07:37;;;;;;;15.27;9.35;;;1.10;85.80;;;;;;5031031;28;20021;-66
2021/01/02 06:10:07;;;;;;;15.57;9.10;;;1.10;85.60;;;;;;5030864;28;20503;-66
2021/01/02 06:12:40;;;;;;;17.58;9.73;;;1.10;85.70;;;;;;5031100;28;20037;-66
2021/01/02 06:15:11;;;;;;;13.52;8.95;;;1.10;85.90;;;;;;5028515;28;20057;-66
2021/01/02 06:17:41;;;;;;;14.40;8.50;;;1.10;85.80;;;;;;5022480;28;20663;-66
2021/01/02 06:20:13;;;;;;;16.42;9.85;;;1.10;85.80;;;;;;5029556;28;20456;-66
2021/01/02 06:22:42;;;;;;;14.02;8.48;;;1.10;85.60;;;;;;5032124;28;20021;-66
2021/01/02 06:25:11;;;;;;;14.40;8.85;;;1.00;85.70;;;;;;5026631;28;20116;-66
2021/01/02 06:27:44;;;;;;;14.35;8.60;;;1.10;85.70;;;;;;5031590;28;20080;-66
2021/01/02 06:30:15;;;;;;;15.30;9.60;;;1.00;85.60;;;;;;5030442;28;20473;-66
2021/01/02 06:32:44;;;;;;;13.70;9.35;;;1.00;85.90;;;;;;5031156;28;20069;-66
2021/01/02 06:35:10;;;;;;;15.43;9.63;;;1.00;86.00;;;;;;5026735;28;20033;-66
2021/01/02 06:37:48;;;;;;;14.73;9.38;;;1.10;85.80;;;;;;5030424;28;20389;-66
2021/01/02 06:40:27;;;;;;;14.65;9.32;;;1.10;85.80;;;;;;5029211;28;20025;-66
2021/01/02 06:42:54;;;;;;;14.02;9.60;;;1.10;85.80;;;;;;5025935;28;20068;-66
2021/01/02 06:45:38;;;;;;;14.95;9.73;;;1.20;85.90;;;;;;5024475;28;20029;-66
2021/01/02 06:48:15;;;;;;;16.08;9.40;;;1.30;85.80;;;;;;5022368;28;20061;-67
2021/01/02 06:50:42;;;;;;;12.98;8.57;;;1.30;85.70;;;;;;5030329;28;20048;-66
2021/01/02 06:53:22;;;;;;;14.88;9.00;;;1.30;85.50;;;;;;5027612;28;20069;-66
2021/01/02 06:56:09;;;;;;;15.40;9.40;;;1.40;85.50;;;;;;5018604;28;20037;-66
2021/01/02 06:58:46;;;;;;;14.27;9.23;;;1.40;85.30;;;;;;5023871;28;20075;-66
2021/01/02 07:01:18;;;;;;;14.65;9.45;;;1.40;85.30;;;;;;5011076;28;20025;-67
2021/01/02 07:03:49;;;;;;;17.63;9.80;;;1.40;85.40;;;;;;5028788;28;20485;-66
2021/01/02 07:06:26;;;;;;;17.77;9.85;;;1.50;85.30;;;;;;5029456;28;20044;-66
2021/01/02 07:08:56;;;;;;;16.02;9.45;;;1.50;85.30;;;;;;5021816;28;20021;-66
2021/01/02 07:11:30;;;;;;;17.75;10.07;;;1.50;85.30;;;;;;5029421;28;20026;-66
2021/01/02 07:14:17;;;;;;;16.75;10.45;;;1.50;85.20;;;;;;5023101;28;20036;-66
2021/01/02 07:16:56;;;;;;;20.35;11.27;;;1.60;85.20;;;;;;5028644;28;20037;-66
2021/01/02 07:19:24;;;;;;;18.85;11.38;;;1.60;85.00;;;;;;5026484;28;20029;-66
2021/01/02 07:22:00;;;;;;;15.55;9.23;;;1.60;84.90;;;;;;5019719;28;20026;-66
2021/01/02 07:24:28;;;;;;;16.75;9.88;;;1.60;84.80;;;;;;5027844;28;20091;-66
2021/01/02 07:27:02;;;;;;;18.73;9.77;;;1.60;85.00;;;;;;5030125;28;20482;-66
2021/01/02 07:29:29;;;;;;;13.07;9.02;;;1.60;85.00;;;;;;5030600;28;20026;-66
2021/01/02 07:32:11;;;;;;;15.90;10.00;;;1.60;85.10;;;;;;5029929;28;20029;-66
2021/01/02 07:34:42;;;;;;;15.10;9.57;;;1.60;85.00;;;;;;5026870;28;20036;-66
2021/01/02 07:37:10;;;;;;;15.02;9.48;;;1.60;85.00;;;;;;5030081;28;20108;-66
2021/01/02 07:39:37;;;;;;;16.35;8.82;;;1.60;84.80;;;;;;5030575;28;20029;-66
2021/01/02 07:42:08;;;;;;;14.40;8.55;;;1.60;84.70;;;;;;5029781;28;20445;-66
2021/01/02 07:44:35;;;;;;;14.25;8.73;;;1.50;84.60;;;;;;5028408;28;20378;-68
2021/01/02 07:47:02;;;;;;;12.55;7.93;;;1.40;84.80;;;;;;5020416;28;20021;-67
2021/01/02 07:49:28;;;;;;;15.00;8.68;;;1.30;84.90;;;;;;5029644;28;20709;-66
2021/01/02 07:51:54;;;;;;;17.08;9.60;;;1.20;84.90;;;;;;5029908;28;20029;-65
2021/01/02 07:54:32;;;;;;;15.02;8.90;;;1.10;85.10;;;;;;5028717;28;20033;-66
2021/01/02 07:56:58;;;;;;;18.70;10.55;;;1.00;85.20;;;;;;5030118;28;20018;-65
2021/01/02 07:59:29;;;;;;;18.05;10.30;;;1.00;85.50;;;;;;5027681;28;20033;-66
2021/01/02 08:02:00;;;;;;;19.02;9.88;;;1.00;85.60;;;;;;5028463;28;20477;-66
2021/01/02 08:04:26;;;;;;;20.40;10.40;;;1.00;85.60;;;;;;5028532;28;20021;-66
2021/01/02 08:07:00;;;;;;;17.13;9.90;;;1.00;85.50;;;;;;5030331;28;20152;-66
2021/01/02 08:09:27;;;;;;;23.25;11.25;;;1.00;85.50;;;;;;5023678;28;20492;-66
2021/01/02 08:11:54;;;;;;;23.30;11.50;;;1.00;85.60;;;;;;5028704;28;20495;-66
2021/01/02 08:14:20;;;;;;;23.73;12.55;;;1.00;85.70;;;;;;5029411;28;20095;-66
2021/01/02 08:17:09;;;;;;;22.23;11.52;;;1.00;85.90;;;;;;5028278;28;20370;-66
2021/01/02 08:19:36;;;;;;;25.25;12.70;;;1.10;86.00;;;;;;5029545;28;20014;-66
2021/01/02 08:22:04;;;;;;;25.55;12.45;;;1.10;85.80;;;;;;5028913;28;20052;-66
2021/01/02 08:24:30;;;;;;;25.45;12.77;;;1.20;85.80;;;;;;5028627;28;20079;-66
2021/01/02 08:26:56;;;;;;;26.13;12.38;;;1.30;85.70;;;;;;5026472;28;20022;-66
2021/01/02 08:29:24;;;;;;;26.42;12.38;;;1.40;85.70;;;;;;5028938;28;20060;-66
2021/01/02 08:31:57;;;;;;;25.33;12.68;;;1.40;86.00;;;;;;5027482;28;20037;-66
2021/01/02 08:34:29;;;;;;;25.45;12.50;;;1.50;85.40;;;;;;5024174;28;20021;-67
2021/01/02 08:37:08;;;;;;;31.08;13.95;;;1.50;85.10;;;;;;5026204;28;20412;-66
2021/01/02 08:39:37;;;;;;;29.75;13.50;;;1.50;85.00;;;;;;5029451;28;20021;-66
2021/01/02 08:42:04;;;;;;;37.40;13.35;;;1.40;85.00;;;;;;5027393;28;20033;-67
2021/01/02 08:44:42;;;;;;;32.50;12.80;;;1.40;85.10;;;;;;5028846;28;20107;-66
2021/01/02 08:47:08;;;;;;;32.00;13.38;;;1.30;85.10;;;;;;5021001;28;20033;-66
2021/01/02 08:49:42;;;;;;;34.75;13.55;;;1.30;85.20;;;;;;5029587;28;20025;-66
2021/01/02 08:52:26;;;;;;;38.28;13.52;;;1.30;85.40;;;;;;5029379;28;20021;-66
2021/01/02 08:55:10;;;;;;;28.30;12.45;;;1.30;85.40;;;;;;5028884;28;20547;-67
2021/01/02 08:57:42;;;;;;;34.25;13.65;;;1.30;85.40;;;;;;5012981;28;20049;-67
2021/01/02 09:00:16;;;;;;;31.30;13.57;;;1.30;85.30;;;;;;5032463;28;20033;-67
2021/01/02 09:02:47;;;;;;;29.27;12.85;;;1.30;85.40;;;;;;5030981;28;20052;-67
2021/01/02 09:05:16;;;;;;;30.30;12.93;;;1.30;85.30;;;;;;5032620;28;20431;-67
2021/01/02 09:08:16;;;;;;;30.70;14.13;;;1.30;85.40;;;;;;5028215;28;20030;-67
2021/01/02 09:10:46;;;;;;;49.35;21.25;;;1.40;85.70;;;;;;5016891;28;20405;-67
2021/01/02 09:13:20;;;;;;;34.72;14.13;;;1.50;86.20;;;;;;5033201;28;20029;-67
2021/01/02 09:15:57;;;;;;;34.45;14.68;;;1.60;85.60;;;;;;5028600;28;21630;-67
2021/01/02 09:18:36;;;;;;;29.50;13.23;;;1.60;85.40;;;;;;5029798;28;20042;-67
2021/01/02 09:21:11;;;;;;;32.45;14.52;;;1.70;85.40;;;;;;5031561;28;20022;-67
2021/01/02 09:23:42;;;;;;;40.05;15.48;;;1.70;85.40;;;;;;5031586;28;20025;-68
2021/01/02 09:26:23;;;;;;;34.50;14.73;;;1.80;85.30;;;;;;5031497;28;20104;-67
2021/01/02 09:28:49;;;;;;;36.78;15.65;;;1.80;85.00;;;;;;5033992;28;20107;-68
2021/01/02 09:31:15;;;;;;;40.13;16.48;;;1.90;85.00;;;;;;5031398;28;20026;-68
2021/01/02 09:33:41;;;;;;;32.70;15.07;;;1.90;84.80;;;;;;5033475;28;20098;-67
2021/01/02 09:36:07;;;;;;;31.50;14.77;;;1.90;84.50;;;;;;5032471;28;20057;-67
2021/01/02 09:38:33;;;;;;;35.17;14.85;;;1.80;84.60;;;;;;5033208;28;20027;-68
2021/01/02 09:40:59;;;;;;;32.50;15.10;;;1.90;84.90;;;;;;5033436;28;20040;-68
2021/01/02 09:43:25;;;;;;;36.97;15.90;;;1.90;85.00;;;;;;5032939;28;20104;-67
2021/01/02 09:45:51;;;;;;;33.17;15.75;;;1.90;85.00;;;;;;5030080;28;20494;-68
2021/01/02 09:48:17;;;;;;;34.55;16.15;;;2.00;85.60;;;;;;5032914;28;20047;-67
2021/01/02 09:50:43;;;;;;;35.13;15.70;;;2.00;85.10;;;;;;5032190;28;20028;-68
2021/01/02 09:53:10;;;;;;;36.17;15.77;;;2.00;85.00;;;;;;5031369;28;20485;-68
2021/01/02 09:55:37;;;;;;;29.23;14.68;;;2.10;85.10;;;;;;5030557;28;20049;-68
2021/01/02 09:58:03;;;;;;;32.45;14.82;;;2.00;84.90;;;;;;5032800;28;20432;-68
2021/01/02 10:00:30;;;;;;;37.92;15.80;;;2.00;84.80;;;;;;5031280;28;20478;-68
2021/01/02 10:02:56;;;;;;;35.45;16.05;;;2.00;84.80;;;;;;5034323;28;20042;-67
2021/01/02 10:05:23;;;;;;;31.70;15.10;;;2.00;85.40;;;;;;5031969;28;20040;-67
2021/01/02 10:07:49;;;;;;;32.88;15.82;;;2.00;85.00;;;;;;5025167;28;20124;-68
2021/01/02 10:10:16;;;;;;;39.17;18.25;;;2.00;85.00;;;;;;5023796;28;20037;-68
2021/01/02 10:12:43;;;;;;;46.20;18.60;;;2.00;85.10;;;;;;5032289;28;20135;-68
2021/01/02 10:15:09;;;;;;;38.63;18.10;;;2.00;85.10;;;;;;5031212;28;20091;-68
2021/01/02 10:17:35;;;;;;;46.78;19.55;;;2.00;85.10;;;;;;5013017;28;20026;-68
2021/01/02 10:20:00;;;;;;;37.08;15.65;;;2.10;86.30;;;;;;5023237;28;20520;-68
2021/01/02 10:22:27;;;;;;;32.50;15.32;;;2.30;86.00;;;;;;5031868;28;20103;-68
2021/01/02 10:24:53;;;;;;;39.75;18.45;;;2.50;85.90;;;;;;5031263;28;20064;-68
2021/01/02 10:27:23;;;;;;;32.30;16.10;;;2.70;86.10;;;;;;5031085;28;20018;-68
2021/01/02 10:29:52;;;;;;;30.10;13.60;;;2.80;85.30;;;;;;5030462;28;20030;-68
2021/01/02 10:32:19;;;;;;;32.90;15.43;;;2.80;84.80;;;;;;5032029;28;20029;-66
2021/01/02 10:34:45;;;;;;;34.05;15.35;;;2.90;84.60;;;;;;5026854;28;20393;-66
2021/01/02 10:37:12;;;;;;;35.92;15.65;;;2.80;84.40;;;;;;5029617;28;20477;-66
2021/01/02 10:39:42;;;;;;;33.33;16.80;;;2.80;84.40;;;;;;5031289;28;20048;-66
2021/01/02 10:42:10;;;;;;;38.70;18.92;;;2.80;84.40;;;;;;5031425;28;20076;-66
2021/01/02 10:44:36;;;;;;;41.60;20.33;;;2.80;84.50;;;;;;5028850;28;20037;-66
2021/01/02 10:47:02;;;;;;;35.63;19.30;;;2.80;84.50;;;;;;5024769;28;20041;-67
2021/01/02 10:49:28;;;;;;;30.50;17.15;;;2.80;84.50;;;;;;5025457;28;20025;-67
2021/01/02 10:51:55;;;;;;;34.22;17.02;;;2.80;84.50;;;;;;5030093;28;20022;-67
2021/01/02 10:54:21;;;;;;;34.63;18.00;;;2.80;84.40;;;;;;5028948;28;20100;-67
2021/01/02 10:56:51;;;;;;;34.33;16.48;;;2.80;84.30;;;;;;5020700;28;20096;-67
2021/01/02 10:59:18;;;;;;;37.72;17.00;;;2.80;84.30;;;;;;5029116;28;20017;-67
2021/01/02 11:01:46;;;;;;;32.35;17.05;;;2.80;84.30;;;;;;5029966;28;20112;-67
2021/01/02 11:04:13;;;;;;;33.20;17.05;;;2.80;84.30;;;;;;5029414;28;20038;-67
2021/01/02 11:06:40;;;;;;;28.35;15.73;;;2.80;84.30;;;;;;5030936;28;20017;-67
2021/01/02 11:09:07;;;;;;;27.55;14.90;;;2.90;84.40;;;;;;5013038;28;20030;-67
2021/01/02 11:11:33;;;;;;;26.75;15.00;;;2.90;84.30;;;;;;5020532;28;20386;-67
2021/01/02 11:13:59;;;;;;;28.00;15.13;;;2.80;84.30;;;;;;5026385;28;20029;-67
2021/01/02 11:16:32;;;;;;;31.50;16.00;;;2.80;84.40;;;;;;5040546;28;20029;-67
2021/01/02 11:18:58;;;;;;;28.17;15.48;;;2.80;84.40;;;;;;5030991;28;20621;-67
2021/01/02 11:21:24;;;;;;;33.47;15.98;;;2.80;84.40;;;;;;5028686;28;20030;-67
2021/01/02 11:23:50;;;;;;;30.50;15.70;;;2.80;84.40;;;;;;5028152;28;20025;-67
2021/01/02 11:26:16;;;;;;;31.35;15.95;;;2.90;84.50;;;;;;5025929;28;20037;-66
2021/01/02 11:28:42;;;;;;;31.63;16.50;;;2.90;84.50;;;;;;5029326;28;20037;-67
2021/01/02 11:31:08;;;;;;;30.88;16.48;;;2.90;84.50;;;;;;5024071;28;20057;-66
2021/01/02 11:33:33;;;;;;;31.85;17.25;;;3.00;84.50;;;;;;5016626;28;20113;-66
2021/01/02 11:35:59;;;;;;;33.25;16.50;;;3.00;84.40;;;;;;5027950;28;20034;-66
2021/01/02 11:38:24;;;;;;;35.50;16.25;;;3.00;84.40;;;;;;5029202;28;20033;-67
2021/01/02 11:40:51;;;;;;;31.98;16.50;;;3.00;84.40;;;;;;5030502;28;20116;-66
2021/01/02 11:43:17;;;;;;;35.45;17.20;;;3.00;84.40;;;;;;5030321;28;20064;-67
2021/01/02 11:48:11;;;;;;;31.40;15.98;;;3.10;84.50;;;;;;5048128;28;20175;-68
2021/01/02 11:50:36;;;;;;;68.70;34.03;;;3.10;84.50;;;;;;5032642;28;20036;-69
2021/01/02 11:53:02;;;;;;;43.35;19.65;;;3.00;84.60;;;;;;5032883;28;20029;-66
2021/01/02 11:55:27;;;;;;;32.25;17.08;;;3.20;85.10;;;;;;5048427;28;20025;-68
2021/01/02 11:57:53;;;;;;;32.90;17.88;;;3.20;84.80;;;;;;5040962;28;20029;-68
2021/01/02 12:00:19;;;;;;;32.85;16.38;;;3.20;84.60;;;;;;5032146;28;20025;-68
2021/01/02 12:02:44;;;;;;;34.33;16.63;;;3.20;84.50;;;;;;5041274;28;20416;-67
2021/01/02 12:05:11;;;;;;;33.67;16.45;;;3.20;84.60;;;;;;5047006;28;20013;-66
2021/01/02 12:07:36;;;;;;;33.05;15.90;;;3.20;84.70;;;;;;5050228;28;20040;-67
2021/01/02 12:10:04;;;;;;;30.90;15.68;;;3.10;84.70;;;;;;5050097;28;20029;-66
2021/01/02 12:12:30;;;;;;;30.35;16.20;;;3.20;84.80;;;;;;5031903;28;20120;-67
2021/01/02 12:14:56;;;;;;;28.55;15.20;;;3.10;84.60;;;;;;5049215;28;20497;-67
2021/01/02 12:17:21;;;;;;;31.65;15.63;;;3.10;84.70;;;;;;5050045;28;20029;-67
2021/01/02 12:19:47;;;;;;;31.90;15.82;;;3.10;84.80;;;;;;5040852;28;20034;-67
2021/01/02 12:22:12;;;;;;;28.30;14.88;;;3.10;84.80;;;;;;5046273;28;20025;-66
2021/01/02 12:24:38;;;;;;;29.30;15.40;;;3.20;84.90;;;;;;5028147;28;20116;-67
2021/01/02 12:27:08;;;;;;;28.60;14.63;;;3.20;84.90;;;;;;5050834;28;20036;-67
2021/01/02 12:29:35;;;;;;;27.50;14.45;;;3.20;84.80;;;;;;5032532;28;20028;-66
2021/01/02 12:32:05;;;;;;;31.98;16.15;;;3.30;84.80;;;;;;5051630;28;20128;-66
2021/01/02 12:34:33;;;;;;;29.52;14.38;;;3.30;84.70;;;;;;5025608;28;20032;-66
2021/01/02 12:37:01;;;;;;;26.73;14.57;;;3.30;84.70;;;;;;5034932;28;20025;-66
2021/01/02 12:39:32;;;;;;;26.77;13.45;;;3.30;84.60;;;;;;5052610;28;20103;-66
2021/01/02 12:41:59;;;;;;;26.58;13.90;;;3.20;84.60;;;;;;5050478;28;20049;-65
2021/01/02 12:44:26;;;;;;;27.52;14.05;;;3.20;84.60;;;;;;5053056;28;20048;-66
2021/01/02 12:46:54;;;;;;;25.15;13.77;;;3.20;84.60;;;;;;5052941;28;20025;-66
2021/01/02 12:49:24;;;;;;;27.38;14.45;;;3.20;84.70;;;;;;5034861;28;20108;-66
2021/01/02 12:51:54;;;;;;;26.20;13.63;;;3.20;84.80;;;;;;5053690;28;20024;-65
2021/01/02 12:54:20;;;;;;;26.92;13.93;;;3.20;84.80;;;;;;5052890;28;20017;-66
2021/01/02 12:56:51;;;;;;;26.65;14.23;;;3.20;84.80;;;;;;5052092;28;20075;-65
2021/01/02 12:59:22;;;;;;;26.95;14.02;;;3.20;84.80;;;;;;5034636;28;20025;-65
2021/01/02 13:01:49;;;;;;;23.95;13.73;;;3.20;84.80;;;;;;5049380;28;20025;-66